Time;durP1;ratioP1;P1;durP2;ratioP2;P2;SDS_P1;SDS_P2;PMS_P1;PMS_P2;Temp;Humidity;BMP_temperature;BMP_pressure;BME280_temperature;BME280_humidity;BME280_pressure;Samples;Min_cycle;Max_cycle;Signal;HPM_P1;HPM_P2
2022/10/30 00:02:09;;;;;;;;;12.00;12.00;;;;;;;;5081271;27;45426;-73
2022/10/30 00:04:34;;;;;;;;;12.67;12.00;;;;;;;;5089083;27;45433;-74
2022/10/30 00:06:59;;;;;;;;;10.33;10.33;;;;;;;;5076657;27;47945;-74
2022/10/30 00:09:25;;;;;;;;;15.00;11.67;;;;;;;;5080410;27;45476;-74
2022/10/30 00:11:50;;;;;;;;;15.67;11.67;;;;;;;;5081772;27;45465;-74
2022/10/30 00:14:15;;;;;;;;;16.33;15.00;;;;;;;;5087052;27;45569;-73
2022/10/30 00:16:40;;;;;;;;;15.00;12.33;;;;;;;;5078094;27;46164;-74
2022/10/30 00:19:05;;;;;;;;;13.33;12.00;;;;;;;;5090411;27;45433;-74
2022/10/30 00:21:31;;;;;;;;;13.67;10.00;;;;;;;;5081353;27;45407;-74
2022/10/30 00:23:56;;;;;;;;;10.67;10.67;;;;;;;;5087434;27;45391;-74
2022/10/30 00:26:21;;;;;;;;;10.67;10.67;;;;;;;;5082360;27;45356;-74
2022/10/30 00:28:50;;;;;;;;;8.33;5.33;;;;;;;;5086483;27;45520;-74
2022/10/30 00:31:15;;;;;;;;;19.00;13.67;;;;;;;;5078793;27;45564;-74
2022/10/30 00:33:41;;;;;;;;;14.00;12.50;;;;;;;;5088102;27;45592;-74
2022/10/30 00:36:06;;;;;;;;;14.00;12.67;;;;;;;;5082595;27;45397;-73
2022/10/30 00:38:31;;;;;;;;;16.67;12.00;;;;;;;;5086866;27;45369;-74
2022/10/30 00:40:56;;;;;;;;;14.67;12.67;;;;;;;;5077532;27;45325;-74
2022/10/30 00:43:30;;;;;;;;;17.00;11.33;;;;;;;;5096577;27;45472;-74
2022/10/30 00:45:58;;;;;;;;;11.67;11.33;;;;;;;;5065388;27;47933;-74
2022/10/30 00:48:25;;;;;;;;;21.33;15.00;;;;;;;;5098312;27;45497;-74
2022/10/30 00:50:51;;;;;;;;;16.67;12.67;;;;;;;;5080509;27;45385;-74
2022/10/30 00:53:18;;;;;;;;;17.67;15.00;;;;;;;;5080359;27;46738;-74
2022/10/30 00:55:48;;;;;;;;;13.00;11.67;;;;;;;;5067837;27;45714;-74
2022/10/30 00:58:15;;;;;;;;;10.33;10.33;;;;;;;;5074399;27;45343;-74
2022/10/30 01:00:41;;;;;;;;;15.00;11.67;;;;;;;;5088290;27;45332;-74
2022/10/30 01:03:06;;;;;;;;;13.33;11.67;;;;;;;;5085352;27;45348;-74
2022/10/30 01:05:32;;;;;;;;;13.67;11.33;;;;;;;;5082091;27;45237;-74
2022/10/30 01:07:57;;;;;;;;;10.33;10.33;;;;;;;;5083998;27;45205;-74
2022/10/30 01:10:22;;;;;;;;;16.33;14.67;;;;;;;;5083054;27;46246;-74
2022/10/30 01:12:50;;;;;;;;;15.00;13.00;;;;;;;;5078916;27;46097;-74
2022/10/30 01:15:16;;;;;;;;;16.00;13.00;;;;;;;;5082620;27;45264;-74
2022/10/30 01:17:57;;;;;;;;;11.33;11.00;;;;;;;;5077641;27;45434;-74
2022/10/30 01:20:22;;;;;;;;;11.33;11.00;;;;;;;;5079347;27;45517;-74
2022/10/30 01:22:55;;;;;;;;;12.33;12.33;;;;;;;;5096238;27;45403;-74
2022/10/30 01:25:32;;;;;;;;;13.33;11.67;;;;;;;;5080987;27;45482;-74
2022/10/30 01:28:03;;;;;;;;;13.00;13.00;;;;;;;;5082859;27;45258;-73
2022/10/30 01:30:40;;;;;;;;;15.00;13.00;;;;;;;;5082435;27;45379;-74
2022/10/30 01:33:05;;;;;;;;;14.00;12.33;;;;;;;;5083729;27;45295;-74
2022/10/30 01:35:43;;;;;;;;;10.00;10.00;;;;;;;;5084751;27;45304;-73
2022/10/30 01:38:11;;;;;;;;;11.33;10.00;;;;;;;;5085006;27;45452;-74
2022/10/30 01:40:37;;;;;;;;;12.00;11.67;;;;;;;;5080853;27;45458;-74
2022/10/30 01:43:02;;;;;;;;;15.00;12.67;;;;;;;;5083838;27;45400;-74
2022/10/30 01:45:39;;;;;;;;;11.33;10.00;;;;;;;;5082338;27;45463;-73
2022/10/30 01:48:28;;;;;;;;;13.33;13.33;;;;;;;;5084452;27;45582;-74
2022/10/30 01:51:13;;;;;;;;;13.33;12.00;;;;;;;;5082850;27;45922;-74
2022/10/30 01:53:47;;;;;;;;;15.67;14.00;;;;;;;;5075484;27;45773;-74
2022/10/30 01:56:17;;;;;;;;;18.67;13.33;;;;;;;;5086351;27;45297;-74
2022/10/30 01:58:52;;;;;;;;;12.67;12.67;;;;;;;;5068533;27;45513;-74
2022/10/30 02:01:17;;;;;;;;;19.33;16.00;;;;;;;;5081230;27;45438;-74
2022/10/30 02:03:43;;;;;;;;;18.00;14.33;;;;;;;;5085828;27;45383;-74
2022/10/30 02:06:08;;;;;;;;;13.33;10.67;;;;;;;;5079384;27;46054;-74
2022/10/30 02:08:33;;;;;;;;;15.33;13.33;;;;;;;;5077096;27;45288;-74
2022/10/30 02:10:58;;;;;;;;;16.00;12.33;;;;;;;;5079048;27;45572;-74
2022/10/30 02:13:24;;;;;;;;;20.33;16.33;;;;;;;;5075307;27;46140;-74
2022/10/30 02:15:49;;;;;;;;;19.33;14.67;;;;;;;;5079904;27;45359;-74
2022/10/30 02:18:15;;;;;;;;;15.33;13.00;;;;;;;;5081804;27;45284;-74
2022/10/30 02:20:40;;;;;;;;;18.00;15.00;;;;;;;;5080168;27;45542;-74
2022/10/30 02:23:07;;;;;;;;;17.67;15.00;;;;;;;;5083716;27;45562;-74
2022/10/30 02:25:33;;;;;;;;;12.67;10.33;;;;;;;;5085717;27;45170;-74
2022/10/30 02:27:58;;;;;;;;;18.67;16.33;;;;;;;;5086163;27;45273;-74
2022/10/30 02:30:23;;;;;;;;;16.00;15.33;;;;;;;;5081787;27;45249;-74
2022/10/30 02:32:49;;;;;;;;;20.33;13.33;;;;;;;;5080222;27;45276;-74
2022/10/30 02:35:14;;;;;;;;;19.00;15.33;;;;;;;;5072296;27;48162;-73
2022/10/30 02:37:39;;;;;;;;;17.00;13.00;;;;;;;;5080060;27;45193;-74
2022/10/30 02:40:07;;;;;;;;;14.33;14.33;;;;;;;;5076666;27;45480;-74
2022/10/30 02:42:32;;;;;;;;;18.33;14.67;;;;;;;;5094033;27;45436;-74
2022/10/30 02:44:57;;;;;;;;;25.33;18.00;;;;;;;;5083903;27;45460;-74
2022/10/30 02:47:22;;;;;;;;;17.33;15.33;;;;;;;;5078477;27;45278;-74
2022/10/30 02:49:47;;;;;;;;;17.33;14.67;;;;;;;;5086093;27;45376;-74
2022/10/30 02:52:13;;;;;;;;;16.00;14.00;;;;;;;;5076753;27;46607;-74
2022/10/30 02:54:38;;;;;;;;;16.00;15.00;;;;;;;;5086485;27;45505;-73
2022/10/30 02:57:03;;;;;;;;;21.33;15.33;;;;;;;;5078952;27;45450;-74
2022/10/30 02:59:29;;;;;;;;;14.00;11.00;;;;;;;;5076001;27;45362;-74
2022/10/30 03:01:54;;;;;;;;;16.33;14.67;;;;;;;;5078394;27;45537;-74
2022/10/30 03:04:19;;;;;;;;;12.00;11.00;;;;;;;;5084751;27;45458;-74
2022/10/30 03:06:44;;;;;;;;;12.67;12.67;;;;;;;;5078469;27;45417;-74
2022/10/30 03:09:09;;;;;;;;;13.33;13.33;;;;;;;;5084352;27;45428;-74
2022/10/30 03:11:35;;;;;;;;;13.33;11.00;;;;;;;;5083479;27;46332;-73
2022/10/30 03:14:00;;;;;;;;;17.33;12.33;;;;;;;;5088419;27;45478;-74
2022/10/30 03:16:28;;;;;;;;;14.67;14.67;;;;;;;;5082066;27;45450;-74
2022/10/30 03:18:53;;;;;;;;;14.33;14.33;;;;;;;;5081563;27;45467;-74
2022/10/30 03:21:20;;;;;;;;;17.00;13.67;;;;;;;;5079540;27;45474;-74
2022/10/30 03:23:45;;;;;;;;;16.67;13.00;;;;;;;;5087143;27;45280;-74
2022/10/30 03:26:10;;;;;;;;;19.33;14.00;;;;;;;;5082378;27;45308;-74
2022/10/30 03:28:36;;;;;;;;;15.67;14.67;;;;;;;;5087091;27;45456;-74
2022/10/30 03:31:05;;;;;;;;;17.67;14.33;;;;;;;;5081654;27;45386;-74
2022/10/30 03:33:31;;;;;;;;;21.00;16.67;;;;;;;;5086426;27;47377;-74
2022/10/30 03:35:56;;;;;;;;;15.67;14.67;;;;;;;;5081847;27;45245;-74
2022/10/30 03:38:21;;;;;;;;;23.33;16.67;;;;;;;;5087653;27;45154;-74
2022/10/30 03:40:47;;;;;;;;;21.33;17.67;;;;;;;;5081825;27;45220;-74
2022/10/30 03:43:12;;;;;;;;;19.00;15.67;;;;;;;;5086971;27;45268;-74
2022/10/30 03:45:37;;;;;;;;;20.00;17.33;;;;;;;;5082164;27;45221;-74
2022/10/30 03:48:04;;;;;;;;;17.67;15.00;;;;;;;;5085748;27;45581;-73
2022/10/30 03:50:29;;;;;;;;;17.33;15.33;;;;;;;;5078370;27;46086;-74
2022/10/30 03:52:54;;;;;;;;;18.67;16.33;;;;;;;;5084494;27;45590;-74
2022/10/30 03:55:19;;;;;;;;;21.00;20.00;;;;;;;;5083584;27;45437;-74
2022/10/30 03:57:46;;;;;;;;;19.00;18.00;;;;;;;;5084052;27;45434;-74
2022/10/30 04:00:11;;;;;;;;;20.00;20.00;;;;;;;;5090111;27;45379;-73
2022/10/30 04:02:37;;;;;;;;;22.67;17.67;;;;;;;;5081655;27;46138;-73
2022/10/30 04:05:02;;;;;;;;;26.67;19.67;;;;;;;;5086438;27;45493;-73
2022/10/30 04:07:28;;;;;;;;;30.00;25.00;;;;;;;;5080936;27;45296;-74
2022/10/30 04:09:53;;;;;;;;;25.67;21.33;;;;;;;;5077103;27;45849;-74
2022/10/30 04:12:19;;;;;;;;;20.33;19.00;;;;;;;;5082262;27;45399;-73
2022/10/30 04:14:44;;;;;;;;;22.00;18.00;;;;;;;;5080315;27;45809;-74
2022/10/30 04:17:09;;;;;;;;;24.33;20.33;;;;;;;;5080916;27;45292;-73
2022/10/30 04:19:35;;;;;;;;;24.67;21.67;;;;;;;;5076502;27;45442;-73
2022/10/30 04:22:00;;;;;;;;;34.67;26.00;;;;;;;;5080578;27;45603;-74
2022/10/30 04:24:25;;;;;;;;;33.75;28.00;;;;;;;;5077478;27;46589;-74
2022/10/30 04:26:51;;;;;;;;;36.00;30.25;;;;;;;;5082451;27;45789;-73
2022/10/30 04:29:16;;;;;;;;;40.00;31.75;;;;;;;;5078267;27;45703;-74
2022/10/30 04:31:41;;;;;;;;;36.00;31.50;;;;;;;;5080404;27;46089;-74
2022/10/30 04:34:06;;;;;;;;;38.00;32.75;;;;;;;;5086404;27;45341;-74
2022/10/30 04:36:32;;;;;;;;;30.00;29.25;;;;;;;;5080831;27;45610;-74
2022/10/30 04:38:58;;;;;;;;;34.25;31.25;;;;;;;;5087124;27;45433;-74
2022/10/30 04:41:23;;;;;;;;;34.00;29.75;;;;;;;;5079967;27;45402;-74
2022/10/30 04:43:48;;;;;;;;;31.50;28.50;;;;;;;;5086741;27;45444;-74
2022/10/30 04:46:14;;;;;;;;;28.00;23.00;;;;;;;;5080650;27;45342;-74
2022/10/30 04:48:39;;;;;;;;;31.25;26.50;;;;;;;;5085982;27;45569;-74
2022/10/30 04:51:05;;;;;;;;;31.75;28.25;;;;;;;;5080268;27;45828;-74
2022/10/30 04:53:30;;;;;;;;;34.25;27.50;;;;;;;;5086126;27;45414;-74
2022/10/30 04:55:55;;;;;;;;;26.00;22.00;;;;;;;;5080086;27;45496;-74
2022/10/30 04:58:20;;;;;;;;;29.33;26.00;;;;;;;;5074790;27;45579;-74
2022/10/30 05:00:45;;;;;;;;;23.33;19.00;;;;;;;;5085964;27;46102;-74
2022/10/30 05:03:16;;;;;;;;;22.00;20.67;;;;;;;;5096733;27;45216;-74
2022/10/30 05:05:42;;;;;;;;;22.67;21.00;;;;;;;;5094610;27;45453;-74
2022/10/30 05:08:07;;;;;;;;;25.00;21.33;;;;;;;;5096298;27;45280;-74
2022/10/30 05:10:32;;;;;;;;;21.00;20.00;;;;;;;;5081510;27;45387;-74
2022/10/30 05:12:58;;;;;;;;;18.00;17.00;;;;;;;;5083119;27;45358;-74
2022/10/30 05:15:24;;;;;;;;;20.67;18.00;;;;;;;;5081782;27;45368;-74
2022/10/30 05:17:54;;;;;;;;;21.33;20.00;;;;;;;;5086537;27;45579;-74
2022/10/30 05:20:20;;;;;;;;;25.00;21.67;;;;;;;;5080758;27;45767;-74
2022/10/30 05:22:45;;;;;;;;;15.00;15.00;;;;;;;;5081814;27;45938;-74
2022/10/30 05:25:11;;;;;;;;;21.33;20.00;;;;;;;;5084879;27;45909;-74
2022/10/30 05:27:36;;;;;;;;;21.33;17.00;;;;;;;;5082089;27;45482;-74
2022/10/30 05:30:01;;;;;;;;;22.00;18.00;;;;;;;;5084372;27;45491;-74
2022/10/30 05:32:27;;;;;;;;;21.33;18.33;;;;;;;;5081642;27;45404;-74
2022/10/30 05:34:52;;;;;;;;;24.00;21.00;;;;;;;;5085020;27;45442;-74
2022/10/30 05:37:17;;;;;;;;;28.67;19.33;;;;;;;;5078893;27;45431;-74
2022/10/30 05:39:42;;;;;;;;;20.67;18.33;;;;;;;;5085724;27;45349;-73
2022/10/30 05:42:07;;;;;;;;;19.67;16.67;;;;;;;;5082419;27;45410;-74
2022/10/30 05:44:32;;;;;;;;;21.00;16.33;;;;;;;;5079254;27;45487;-73
2022/10/30 05:46:58;;;;;;;;;22.33;18.00;;;;;;;;5079677;27;45585;-73
2022/10/30 05:49:23;;;;;;;;;20.67;19.67;;;;;;;;5092126;27;45514;-73
2022/10/30 05:51:48;;;;;;;;;23.33;21.67;;;;;;;;5086006;27;45472;-73
2022/10/30 05:54:13;;;;;;;;;18.33;16.67;;;;;;;;5090202;27;45414;-73
2022/10/30 05:56:38;;;;;;;;;21.67;18.00;;;;;;;;5085485;27;45487;-73
2022/10/30 05:59:04;;;;;;;;;21.33;20.67;;;;;;;;5086095;27;45387;-73
2022/10/30 06:01:29;;;;;;;;;19.33;19.00;;;;;;;;5079917;27;45404;-73
2022/10/30 06:03:54;;;;;;;;;20.00;17.33;;;;;;;;5086169;27;45428;-73
2022/10/30 06:06:20;;;;;;;;;17.67;16.00;;;;;;;;5084043;27;45426;-73
2022/10/30 06:08:45;;;;;;;;;22.00;18.33;;;;;;;;5085198;27;46714;-73
2022/10/30 06:11:10;;;;;;;;;21.00;18.00;;;;;;;;5080249;27;45457;-73
2022/10/30 06:13:35;;;;;;;;;24.00;19.00;;;;;;;;5091815;27;45390;-73
2022/10/30 06:16:01;;;;;;;;;21.67;20.67;;;;;;;;5079492;27;45398;-73
2022/10/30 06:18:26;;;;;;;;;20.00;20.00;;;;;;;;5084384;27;46286;-73
2022/10/30 06:20:53;;;;;;;;;16.33;16.00;;;;;;;;5077620;27;46080;-74
2022/10/30 06:23:18;;;;;;;;;18.67;17.67;;;;;;;;5094622;27;45391;-73
2022/10/30 06:25:43;;;;;;;;;22.33;20.33;;;;;;;;5079541;27;45347;-74
2022/10/30 06:28:10;;;;;;;;;20.33;18.33;;;;;;;;5083807;27;45643;-74
2022/10/30 06:30:35;;;;;;;;;23.67;20.33;;;;;;;;5080859;27;45284;-74
2022/10/30 06:33:04;;;;;;;;;24.00;19.67;;;;;;;;5083031;27;44779;-72
2022/10/30 06:35:29;;;;;;;;;24.67;19.67;;;;;;;;5071094;27;46338;-73
2022/10/30 06:37:55;;;;;;;;;19.75;18.50;;;;;;;;5082213;27;45532;-72
2022/10/30 06:40:23;;;;;;;;;24.00;20.50;;;;;;;;5081937;27;45238;-73
2022/10/30 06:42:50;;;;;;;;;17.67;17.00;;;;;;;;5076263;27;45439;-73
2022/10/30 06:45:15;;;;;;;;;23.25;19.25;;;;;;;;5094247;27;45644;-73
2022/10/30 06:47:41;;;;;;;;;25.75;22.75;;;;;;;;5089181;27;45336;-73
2022/10/30 06:50:08;;;;;;;;;17.50;17.50;;;;;;;;5087926;27;46590;-73
2022/10/30 06:52:33;;;;;;;;;25.00;20.67;;;;;;;;5092539;27;45471;-73
2022/10/30 06:54:58;;;;;;;;;24.33;22.00;;;;;;;;5088326;27;45560;-73
2022/10/30 06:57:24;;;;;;;;;22.00;18.75;;;;;;;;5083538;27;46189;-73
2022/10/30 06:59:49;;;;;;;;;20.33;17.67;;;;;;;;5089997;27;45387;-73
2022/10/30 07:02:14;;;;;;;;;21.75;21.00;;;;;;;;5097836;27;45403;-73
2022/10/30 07:04:39;;;;;;;;;24.00;19.25;;;;;;;;5090234;27;45430;-72
2022/10/30 07:07:05;;;;;;;;;21.67;20.00;;;;;;;;5082436;27;45583;-74
2022/10/30 07:09:30;;;;;;;;;22.00;20.00;;;;;;;;5076028;27;45441;-75
2022/10/30 07:11:55;;;;;;;;;22.00;19.33;;;;;;;;5083534;27;45432;-74
2022/10/30 07:14:20;;;;;;;;;26.25;21.50;;;;;;;;5087318;27;45432;-73
2022/10/30 07:16:46;;;;;;;;;25.00;23.50;;;;;;;;5076913;27;47532;-74
2022/10/30 07:19:11;;;;;;;;;22.25;21.00;;;;;;;;5092313;27;45513;-75
2022/10/30 07:21:36;;;;;;;;;20.25;20.00;;;;;;;;5080547;27;45514;-74
2022/10/30 07:24:01;;;;;;;;;21.50;18.75;;;;;;;;5089948;27;45551;-74
2022/10/30 07:26:27;;;;;;;;;24.50;20.50;;;;;;;;5087066;27;45585;-74
2022/10/30 07:28:52;;;;;;;;;23.67;21.67;;;;;;;;5086607;27;45574;-75
2022/10/30 07:31:17;;;;;;;;;23.33;21.00;;;;;;;;5082104;27;45252;-76
2022/10/30 07:33:42;;;;;;;;;22.00;19.00;;;;;;;;5079651;27;46001;-75
2022/10/30 07:36:08;;;;;;;;;20.33;20.33;;;;;;;;5084796;27;45318;-77
2022/10/30 07:38:33;;;;;;;;;24.67;19.33;;;;;;;;5086561;27;45326;-79
2022/10/30 07:40:58;;;;;;;;;20.33;19.33;;;;;;;;5078498;27;45533;-73
2022/10/30 07:43:23;;;;;;;;;23.33;17.33;;;;;;;;5096463;27;45301;-75
2022/10/30 07:45:48;;;;;;;;;26.33;22.00;;;;;;;;5085189;27;45537;-75
2022/10/30 07:48:14;;;;;;;;;27.33;21.00;;;;;;;;5092223;27;45503;-75
2022/10/30 07:50:39;;;;;;;;;24.00;22.00;;;;;;;;5089953;27;45497;-77
2022/10/30 07:53:04;;;;;;;;;18.33;17.33;;;;;;;;5098261;27;45339;-74
2022/10/30 07:55:29;;;;;;;;;19.67;17.00;;;;;;;;5080155;27;47396;-74
2022/10/30 07:57:54;;;;;;;;;18.33;16.00;;;;;;;;5089866;27;45300;-74
2022/10/30 08:00:20;;;;;;;;;25.00;22.33;;;;;;;;5088841;27;45298;-74
2022/10/30 08:02:48;;;;;;;;;23.33;22.00;;;;;;;;5082838;27;45625;-76
2022/10/30 08:05:13;;;;;;;;;18.33;17.67;;;;;;;;5086648;27;45385;-74
2022/10/30 08:07:38;;;;;;;;;18.00;16.00;;;;;;;;5080169;27;45383;-74
2022/10/30 08:10:04;;;;;;;;;21.33;20.67;;;;;;;;5088004;27;45228;-75
2022/10/30 08:12:31;;;;;;;;;19.67;18.67;;;;;;;;5084247;27;45407;-75
2022/10/30 08:14:56;;;;;;;;;15.33;15.33;;;;;;;;5085878;27;45356;-75
2022/10/30 08:17:21;;;;;;;;;19.33;17.67;;;;;;;;5088134;27;45454;-75
2022/10/30 08:19:46;;;;;;;;;21.00;19.67;;;;;;;;5080094;27;45481;-77
2022/10/30 08:22:12;;;;;;;;;20.67;17.33;;;;;;;;5084470;27;45519;-76
2022/10/30 08:24:37;;;;;;;;;22.67;19.67;;;;;;;;5093975;27;45520;-75
2022/10/30 08:27:03;;;;;;;;;25.67;18.00;;;;;;;;5089806;27;45576;-76
2022/10/30 08:29:28;;;;;;;;;23.33;22.33;;;;;;;;5093351;27;45434;-76
2022/10/30 08:31:53;;;;;;;;;26.00;21.33;;;;;;;;5072802;27;45394;-78
2022/10/30 08:34:19;;;;;;;;;23.00;21.00;;;;;;;;5097219;27;45495;-76
2022/10/30 08:36:46;;;;;;;;;25.00;22.00;;;;;;;;5073862;27;45321;-76
2022/10/30 08:39:11;;;;;;;;;20.33;18.00;;;;;;;;5099446;27;45505;-78
2022/10/30 08:41:37;;;;;;;;;27.67;21.33;;;;;;;;5089738;27;45315;-78
2022/10/30 08:44:02;;;;;;;;;21.33;20.00;;;;;;;;5093782;27;46562;-76
2022/10/30 08:46:27;;;;;;;;;29.33;23.33;;;;;;;;5081476;27;45260;-78
2022/10/30 08:48:54;;;;;;;;;25.00;22.67;;;;;;;;5098499;27;45498;-76
2022/10/30 08:51:19;;;;;;;;;25.00;22.00;;;;;;;;5072612;27;45784;-76
2022/10/30 08:53:46;;;;;;;;;26.67;24.33;;;;;;;;5073812;27;46592;-76
2022/10/30 08:56:12;;;;;;;;;25.33;22.33;;;;;;;;5073462;27;45486;-76
2022/10/30 08:58:37;;;;;;;;;23.33;18.33;;;;;;;;5093456;27;45252;-76
2022/10/30 09:01:02;;;;;;;;;21.33;20.00;;;;;;;;5097219;27;45576;-76
2022/10/30 09:03:27;;;;;;;;;23.33;20.67;;;;;;;;5082444;27;46460;-75
2022/10/30 09:05:52;;;;;;;;;26.33;22.00;;;;;;;;5088294;27;45387;-75
2022/10/30 09:08:18;;;;;;;;;21.33;19.33;;;;;;;;5093247;27;45453;-75
2022/10/30 09:10:43;;;;;;;;;26.33;24.00;;;;;;;;5096223;27;45344;-75
2022/10/30 09:13:08;;;;;;;;;19.33;16.67;;;;;;;;5088347;27;45313;-75
2022/10/30 09:15:34;;;;;;;;;24.67;22.00;;;;;;;;5085305;27;45574;-75
2022/10/30 09:18:00;;;;;;;;;25.00;22.00;;;;;;;;5093718;27;45454;-75
2022/10/30 09:20:26;;;;;;;;;27.33;25.00;;;;;;;;5082228;27;46873;-74
2022/10/30 09:22:51;;;;;;;;;31.67;24.33;;;;;;;;5090374;27;46055;-74
2022/10/30 09:25:17;;;;;;;;;28.67;25.00;;;;;;;;5074072;27;45442;-75
2022/10/30 09:27:42;;;;;;;;;26.67;23.33;;;;;;;;5094512;27;45379;-76
2022/10/30 09:30:07;;;;;;;;;22.33;21.33;;;;;;;;5073510;28;45624;-76
2022/10/30 09:32:33;;;;;;;;;25.00;23.33;;;;;;;;5061983;27;46617;-75
2022/10/30 09:34:58;;;;;;;;;27.00;24.33;;;;;;;;5099912;27;45287;-76
2022/10/30 09:37:23;;;;;;;;;24.00;21.00;;;;;;;;5086250;27;45390;-77
2022/10/30 09:39:49;;;;;;;;;19.00;18.33;;;;;;;;5093735;27;45225;-76
2022/10/30 09:42:26;;;;;;;;;23.33;19.00;;;;;;;;5070594;27;47094;-74
2022/10/30 09:44:59;;;;;;;;;23.00;22.00;;;;;;;;5096629;27;45376;-75
2022/10/30 09:47:41;;;;;;;;;20.00;17.33;;;;;;;;5086626;27;45150;-75
2022/10/30 09:50:06;;;;;;;;;18.67;17.00;;;;;;;;5086566;27;47410;-80
2022/10/30 09:52:40;;;;;;;;;19.00;17.00;;;;;;;;5091481;27;45417;-78
2022/10/30 09:55:08;;;;;;;;;17.00;14.00;;;;;;;;5097311;27;45379;-79
2022/10/30 09:57:34;;;;;;;;;17.33;15.33;;;;;;;;5075574;27;45351;-79
2022/10/30 10:00:10;;;;;;;;;21.00;17.67;;;;;;;;5078018;27;45269;-78
2022/10/30 10:02:38;;;;;;;;;21.33;20.33;;;;;;;;5096343;27;45209;-84
2022/10/30 10:05:09;;;;;;;;;20.00;18.00;;;;;;;;5095284;27;45414;-79
2022/10/30 10:07:37;;;;;;;;;19.67;15.33;;;;;;;;5098739;27;45300;-79
2022/10/30 10:10:05;;;;;;;;;14.33;13.33;;;;;;;;5097269;27;45725;-78
2022/10/30 10:12:42;;;;;;;;;15.00;13.67;;;;;;;;5089544;27;45478;-80
2022/10/30 10:15:14;;;;;;;;;18.00;14.00;;;;;;;;5075062;27;45357;-80
2022/10/30 10:17:41;;;;;;;;;17.00;13.00;;;;;;;;5084572;27;45366;-78
2022/10/30 10:20:12;;;;;;;;;18.33;15.33;;;;;;;;5072717;28;47092;-80
2022/10/30 10:22:44;;;;;;;;;16.00;14.67;;;;;;;;5079627;27;46128;-80
2022/10/30 10:25:12;;;;;;;;;14.00;13.00;;;;;;;;5089258;27;46136;-80
2022/10/30 10:27:58;;;;;;;;;9.67;8.33;;;;;;;;5069738;27;45536;-81
2022/10/30 10:30:24;;;;;;;;;11.67;11.00;;;;;;;;5087087;27;45456;-81
2022/10/30 10:32:59;;;;;;;;;10.00;10.00;;;;;;;;5090448;27;46800;-80
2022/10/30 10:35:43;;;;;;;;;15.67;9.67;;;;;;;;5078769;27;45342;-80
2022/10/30 10:38:08;;;;;;;;;11.67;11.67;;;;;;;;5087217;27;45395;-81
2022/10/30 10:41:09;;;;;;;;;15.67;11.33;;;;;;;;5099543;27;45468;-80
2022/10/30 10:43:43;;;;;;;;;12.67;10.33;;;;;;;;5018547;28;46326;-80
2022/10/30 10:46:21;;;;;;;;;16.67;11.33;;;;;;;;5082395;27;45241;-77
2022/10/30 10:49:05;;;;;;;;;11.33;10.67;;;;;;;;5095281;27;45256;-78
2022/10/30 10:51:37;;;;;;;;;9.33;9.33;;;;;;;;5086353;27;45612;-79
2022/10/30 10:54:07;;;;;;;;;11.33;10.00;;;;;;;;5089441;27;46491;-80
2022/10/30 10:56:35;;;;;;;;;12.33;10.67;;;;;;;;5083523;27;45389;-79
2022/10/30 10:59:02;;;;;;;;;8.33;7.67;;;;;;;;5086470;27;45386;-81
2022/10/30 11:01:38;;;;;;;;;10.67;8.67;;;;;;;;5079480;27;46351;-76
2022/10/30 11:04:22;;;;;;;;;10.67;9.67;;;;;;;;5088163;27;46165;-75
2022/10/30 11:06:49;;;;;;;;;11.00;11.00;;;;;;;;5077976;27;45513;-76
2022/10/30 11:09:19;;;;;;;;;11.33;10.67;;;;;;;;5062167;27;45407;-76
2022/10/30 11:11:44;;;;;;;;;11.00;10.00;;;;;;;;5085855;27;45423;-75
2022/10/30 11:14:17;;;;;;;;;14.00;11.33;;;;;;;;5089708;27;45398;-76
2022/10/30 11:17:03;;;;;;;;;15.33;11.00;;;;;;;;5080505;27;45324;-78
2022/10/30 11:19:29;;;;;;;;;7.00;5.67;;;;;;;;5075251;27;45642;-76
2022/10/30 11:21:55;;;;;;;;;15.33;12.33;;;;;;;;5082800;27;45446;-75
2022/10/30 11:24:31;;;;;;;;;12.67;12.67;;;;;;;;5078288;27;46271;-79
2022/10/30 11:26:57;;;;;;;;;15.00;12.67;;;;;;;;5074414;27;45305;-79
2022/10/30 11:29:24;;;;;;;;;14.67;14.00;;;;;;;;5078300;27;45580;-78
2022/10/30 11:32:02;;;;;;;;;16.67;12.00;;;;;;;;5079527;27;45591;-77
2022/10/30 11:34:30;;;;;;;;;16.00;16.00;;;;;;;;5090738;27;46145;-76
2022/10/30 11:36:56;;;;;;;;;16.33;13.33;;;;;;;;5081483;27;45328;-77
2022/10/30 11:39:26;;;;;;;;;16.00;14.00;;;;;;;;5089810;27;45459;-78
2022/10/30 11:41:55;;;;;;;;;14.33;12.33;;;;;;;;5091438;27;45232;-78
2022/10/30 11:44:27;;;;;;;;;10.00;8.00;;;;;;;;5091717;27;46335;-78
2022/10/30 11:46:53;;;;;;;;;10.67;10.67;;;;;;;;5081585;27;45395;-79
2022/10/30 11:49:26;;;;;;;;;12.33;11.00;;;;;;;;5094893;27;45335;-79
2022/10/30 11:51:52;;;;;;;;;12.00;11.67;;;;;;;;5081961;27;46602;-78
2022/10/30 11:54:19;;;;;;;;;10.33;9.67;;;;;;;;5082816;27;47077;-79
2022/10/30 11:56:47;;;;;;;;;8.00;8.00;;;;;;;;5095995;27;44779;-77
2022/10/30 11:59:16;;;;;;;;;11.33;9.33;;;;;;;;5090580;27;45442;-77
2022/10/30 12:01:56;;;;;;;;;8.00;8.00;;;;;;;;5084779;27;45243;-78
2022/10/30 12:04:22;;;;;;;;;6.33;6.00;;;;;;;;5091885;27;45596;-76
2022/10/30 12:06:50;;;;;;;;;10.00;6.67;;;;;;;;5085317;27;45396;-76
2022/10/30 12:09:19;;;;;;;;;11.67;8.00;;;;;;;;5094014;27;45411;-78
2022/10/30 12:11:45;;;;;;;;;7.00;6.00;;;;;;;;5085070;27;45422;-77
2022/10/30 12:14:16;;;;;;;;;8.00;6.67;;;;;;;;5099001;27;46208;-82
2022/10/30 12:16:46;;;;;;;;;10.00;8.00;;;;;;;;5079215;27;45232;-78
2022/10/30 12:19:14;;;;;;;;;7.67;6.33;;;;;;;;5099305;27;45418;-79
2022/10/30 12:21:47;;;;;;;;;8.00;6.67;;;;;;;;5074903;28;45809;-78
2022/10/30 12:24:32;;;;;;;;;6.67;6.67;;;;;;;;5091019;27;46294;-78
2022/10/30 12:27:02;;;;;;;;;9.33;7.67;;;;;;;;5099886;27;45263;-81
2022/10/30 12:29:48;;;;;;;;;6.33;6.33;;;;;;;;5094326;27;45423;-78
2022/10/30 12:32:18;;;;;;;;;9.00;7.33;;;;;;;;5058770;27;45991;-75
2022/10/30 12:34:55;;;;;;;;;9.00;6.00;;;;;;;;5095916;27;45480;-75
2022/10/30 12:37:24;;;;;;;;;8.00;6.33;;;;;;;;5076583;27;45415;-75
2022/10/30 12:39:57;;;;;;;;;6.33;6.33;;;;;;;;5097541;27;45605;-78
2022/10/30 12:42:23;;;;;;;;;6.00;5.00;;;;;;;;5068364;27;45869;-76
2022/10/30 12:44:54;;;;;;;;;5.67;5.67;;;;;;;;5086460;27;45349;-76
2022/10/30 12:47:37;;;;;;;;;6.33;4.67;;;;;;;;5085303;27;45314;-76
2022/10/30 12:50:09;;;;;;;;;7.67;6.00;;;;;;;;5087196;27;45385;-77
2022/10/30 12:52:43;;;;;;;;;10.67;8.00;;;;;;;;5079714;27;45445;-78
2022/10/30 12:55:16;;;;;;;;;10.00;7.00;;;;;;;;5084338;27;45682;-77
2022/10/30 12:57:47;;;;;;;;;5.67;4.67;;;;;;;;5097495;27;45166;-77
2022/10/30 13:00:14;;;;;;;;;5.33;4.33;;;;;;;;5090165;27;45311;-77
2022/10/30 13:02:51;;;;;;;;;6.00;5.00;;;;;;;;5080072;27;45288;-76
2022/10/30 13:05:24;;;;;;;;;6.67;4.33;;;;;;;;5080780;27;45380;-76
2022/10/30 13:08:05;;;;;;;;;7.00;5.33;;;;;;;;5078522;27;45492;-77
2022/10/30 13:10:38;;;;;;;;;4.67;3.67;;;;;;;;5093413;27;45391;-76
2022/10/30 13:13:14;;;;;;;;;7.00;1.00;;;;;;;;5096467;27;45519;-77
2022/10/30 13:15:47;;;;;;;;;5.67;4.00;;;;;;;;5080082;27;45473;-77
2022/10/30 13:18:14;;;;;;;;;6.33;5.00;;;;;;;;5094176;27;45633;-77
2022/10/30 13:20:42;;;;;;;;;5.00;5.00;;;;;;;;5079237;27;45507;-78
2022/10/30 13:23:10;;;;;;;;;3.67;2.00;;;;;;;;5082533;27;45388;-77
2022/10/30 13:25:49;;;;;;;;;3.00;3.00;;;;;;;;5083953;27;46264;-76
2022/10/30 13:28:21;;;;;;;;;2.67;1.33;;;;;;;;5086703;27;45840;-77
2022/10/30 13:30:55;;;;;;;;;2.67;2.67;;;;;;;;5090925;27;45260;-76
2022/10/30 13:33:24;;;;;;;;;3.67;3.00;;;;;;;;5084909;27;45498;-77
2022/10/30 13:36:08;;;;;;;;;3.33;3.33;;;;;;;;5075573;27;45488;-77
2022/10/30 13:38:40;;;;;;;;;6.00;2.00;;;;;;;;5094140;27;45406;-76
2022/10/30 13:41:10;;;;;;;;;2.33;2.33;;;;;;;;5075206;27;45241;-77
2022/10/30 13:43:44;;;;;;;;;2.67;2.67;;;;;;;;5086779;27;45440;-77
2022/10/30 13:46:18;;;;;;;;;1.67;1.67;;;;;;;;5079983;27;45830;-78
2022/10/30 13:49:02;;;;;;;;;4.67;3.00;;;;;;;;5079979;27;45539;-80
2022/10/30 13:51:38;;;;;;;;;2.67;2.00;;;;;;;;5079989;27;45201;-80
2022/10/30 13:54:09;;;;;;;;;4.00;4.00;;;;;;;;5093570;27;45334;-81
2022/10/30 13:56:35;;;;;;;;;3.00;2.67;;;;;;;;5077016;27;46769;-81
2022/10/30 13:59:03;;;;;;;;;5.00;5.00;;;;;;;;5075642;27;45482;-79
2022/10/30 14:01:38;;;;;;;;;6.00;4.67;;;;;;;;5085720;27;45313;-79
2022/10/30 14:04:04;;;;;;;;;9.67;9.00;;;;;;;;5094816;27;45576;-79
2022/10/30 14:06:41;;;;;;;;;5.33;4.00;;;;;;;;5085952;27;45433;-79
2022/10/30 14:09:21;;;;;;;;;3.67;3.67;;;;;;;;5091162;27;45256;-79
2022/10/30 14:11:46;;;;;;;;;11.67;8.33;;;;;;;;5082694;27;45356;-77
2022/10/30 14:14:11;;;;;;;;;16.00;15.00;;;;;;;;5076266;28;46055;-77
2022/10/30 14:16:44;;;;;;;;;5.00;3.00;;;;;;;;5063954;27;47761;-77
2022/10/30 14:19:16;;;;;;;;;6.67;4.00;;;;;;;;5073392;27;45897;-77
2022/10/30 14:21:42;;;;;;;;;13.33;12.00;;;;;;;;5065776;28;45362;-78
2022/10/30 14:24:12;;;;;;;;;4.00;3.67;;;;;;;;5072661;27;45632;-75
2022/10/30 14:26:39;;;;;;;;;2.33;1.67;;;;;;;;5090658;27;46437;-75